createdAt,value
2022-10-08T00:01:56.442Z,11.97
2022-10-08T00:04:24.221Z,11.53
2022-10-08T00:06:52.131Z,11.63
2022-10-08T00:09:19.883Z,11.13
2022-10-08T00:11:47.642Z,10.80
2022-10-08T00:14:17.296Z,10.30
2022-10-08T00:16:45.204Z,10.33
2022-10-08T00:19:16.085Z,9.27
2022-10-08T00:21:46.123Z,9.73
2022-10-08T00:24:17.242Z,10.10
2022-10-08T00:26:45.495Z,9.10
2022-10-08T00:29:15.347Z,9.30
2022-10-08T00:31:46.908Z,9.27
2022-10-08T00:34:17.497Z,9.43
2022-10-08T00:36:47.345Z,9.33
2022-10-08T00:39:18.384Z,8.97
2022-10-08T00:41:48.305Z,9.07
2022-10-08T00:44:54.459Z,9.70
2022-10-08T00:47:36.463Z,9.17
2022-10-08T00:50:09.426Z,9.87
2022-10-08T00:52:42.528Z,9.07
2022-10-08T00:55:12.674Z,8.67
2022-10-08T00:57:42.810Z,8.70
2022-10-08T01:00:13.387Z,10.00
2022-10-08T01:02:42.733Z,9.90
2022-10-08T01:05:12.726Z,9.27
2022-10-08T01:07:49.339Z,9.13
2022-10-08T01:10:27.257Z,8.90
2022-10-08T01:13:11.263Z,9.23
2022-10-08T01:15:45.722Z,9.77
2022-10-08T01:18:23.319Z,9.80
2022-10-08T01:21:00.252Z,9.30
2022-10-08T01:23:43.093Z,9.10
2022-10-08T01:26:25.994Z,9.07
2022-10-08T01:29:02.730Z,8.60
2022-10-08T01:31:33.664Z,8.37
2022-10-08T01:34:07.823Z,9.40
2022-10-08T01:36:39.359Z,8.73
2022-10-08T01:39:11.716Z,9.30
2022-10-08T01:41:40.734Z,9.73
2022-10-08T01:44:16.363Z,9.27
2022-10-08T01:46:47.925Z,9.27
2022-10-08T01:49:19.585Z,8.53
2022-10-08T01:51:53.517Z,8.63
2022-10-08T01:54:23.057Z,6.93
2022-10-08T01:56:52.284Z,6.07
2022-10-08T01:59:25.419Z,5.43
2022-10-08T02:01:58.110Z,4.17
2022-10-08T02:04:35.186Z,4.80
2022-10-08T02:07:07.900Z,4.37
2022-10-08T02:09:38.690Z,3.80
2022-10-08T02:12:06.957Z,3.60
2022-10-08T02:14:39.005Z,3.97
2022-10-08T02:17:19.288Z,3.80
2022-10-08T02:19:54.353Z,3.63
2022-10-08T02:22:27.076Z,3.13
2022-10-08T02:25:01.797Z,3.43
2022-10-08T02:27:38.013Z,3.50
2022-10-08T02:30:11.033Z,3.70
2022-10-08T02:32:50.419Z,3.60
2022-10-08T02:35:25.191Z,3.20
2022-10-08T02:37:59.004Z,3.57
2022-10-08T02:40:28.362Z,3.27
2022-10-08T02:43:01.399Z,3.83
2022-10-08T02:45:35.560Z,2.73
2022-10-08T02:48:09.380Z,3.20
2022-10-08T02:50:40.863Z,3.33
2022-10-08T02:53:09.119Z,3.63
2022-10-08T02:55:43.102Z,3.27
2022-10-08T02:58:13.480Z,3.63
2022-10-08T03:00:49.952Z,3.23
2022-10-08T03:03:23.947Z,3.13
2022-10-08T03:05:52.720Z,3.53
2022-10-08T03:08:22.430Z,3.30
2022-10-08T03:10:51.028Z,4.00
2022-10-08T03:13:19.396Z,4.00
2022-10-08T03:15:52.303Z,3.60
2022-10-08T03:18:21.941Z,3.83
2022-10-08T03:20:51.820Z,3.50
2022-10-08T03:23:20.248Z,3.60
2022-10-08T03:25:47.997Z,3.57
2022-10-08T03:28:15.795Z,3.00
2022-10-08T03:30:44.820Z,3.17
2022-10-08T03:33:14.038Z,2.90
2022-10-08T03:35:45.819Z,3.70
2022-10-08T03:38:15.349Z,3.53
2022-10-08T03:40:43.214Z,3.57
2022-10-08T03:43:11.178Z,3.50
2022-10-08T03:45:38.899Z,4.13
2022-10-08T03:48:06.658Z,3.47
2022-10-08T03:50:35.790Z,4.13
2022-10-08T03:53:03.539Z,4.00
2022-10-08T03:55:31.309Z,3.73
2022-10-08T03:57:59.122Z,3.97
2022-10-08T04:00:26.926Z,4.13
2022-10-08T04:02:54.782Z,4.50
2022-10-08T04:05:22.601Z,4.60
2022-10-08T04:07:51.718Z,4.43
2022-10-08T04:10:19.424Z,5.53
2022-10-08T04:12:47.517Z,5.10
2022-10-08T04:15:15.537Z,4.47
2022-10-08T04:17:43.588Z,4.80
2022-10-08T04:20:12.861Z,4.13
2022-10-08T04:22:41.027Z,4.30
2022-10-08T04:25:10.502Z,3.87
2022-10-08T04:27:38.280Z,4.67
2022-10-08T04:30:07.430Z,4.40
2022-10-08T04:32:35.152Z,4.10
2022-10-08T04:35:02.949Z,3.93
2022-10-08T04:37:30.718Z,3.93
2022-10-08T04:39:58.593Z,3.40
2022-10-08T04:42:27.958Z,4.50
2022-10-08T04:44:55.706Z,4.03
2022-10-08T04:47:23.594Z,4.40
2022-10-08T04:49:51.336Z,4.13
2022-10-08T04:52:20.536Z,4.37
2022-10-08T04:54:48.539Z,4.90
2022-10-08T04:57:16.461Z,4.70
2022-10-08T05:00:13.130Z,4.83
2022-10-08T05:02:36.169Z,4.70
2022-10-08T05:05:04.193Z,4.67
2022-10-08T05:07:31.926Z,4.80
2022-10-08T05:09:59.731Z,4.60
2022-10-08T05:12:27.462Z,5.47
2022-10-08T05:14:56.585Z,5.20
2022-10-08T05:17:24.359Z,5.37
2022-10-08T05:19:52.824Z,5.93
2022-10-08T05:22:20.600Z,5.10
2022-10-08T05:24:48.384Z,5.27
2022-10-08T05:27:16.183Z,5.20
2022-10-08T05:29:43.982Z,5.10
2022-10-08T05:32:13.032Z,4.73
2022-10-08T05:34:40.856Z,4.67
2022-10-08T05:37:14.475Z,4.67
2022-10-08T05:39:42.228Z,5.00
2022-10-08T05:42:10.050Z,4.57
2022-10-08T05:44:37.993Z,4.87
2022-10-08T05:47:05.982Z,4.73
2022-10-08T05:49:35.062Z,5.13
2022-10-08T05:52:03.190Z,4.53
2022-10-08T05:54:30.945Z,4.10
2022-10-08T05:56:58.856Z,4.53
2022-10-08T05:59:26.635Z,4.70
2022-10-08T06:01:54.377Z,4.10
2022-10-08T06:04:22.381Z,3.93
2022-10-08T06:06:51.632Z,4.23
2022-10-08T06:09:21.497Z,4.00
2022-10-08T06:11:49.872Z,4.33
2022-10-08T06:14:19.222Z,4.43
2022-10-08T06:16:47.464Z,4.70
2022-10-08T06:19:15.635Z,4.10
2022-10-08T06:21:43.426Z,3.90
2022-10-08T06:24:13.250Z,3.73
2022-10-08T06:26:43.651Z,4.23
2022-10-08T06:29:14.945Z,3.93
2022-10-08T06:31:42.823Z,4.20
2022-10-08T06:34:10.716Z,3.73
2022-10-08T06:36:38.612Z,4.17
2022-10-08T06:39:08.947Z,4.00
2022-10-08T06:41:38.583Z,3.67
2022-10-08T06:44:08.555Z,3.73
2022-10-08T06:46:36.423Z,4.03
2022-10-08T06:49:05.977Z,3.50
2022-10-08T06:51:34.546Z,4.03
2022-10-08T06:54:07.378Z,4.00
2022-10-08T06:56:38.516Z,4.00
2022-10-08T06:59:07.328Z,3.87
2022-10-08T07:01:36.529Z,3.70
2022-10-08T07:04:06.678Z,3.63
2022-10-08T07:06:34.460Z,4.10
2022-10-08T07:09:03.260Z,3.70
2022-10-08T07:11:33.301Z,4.17
2022-10-08T07:14:02.622Z,3.63
2022-10-08T07:16:30.589Z,3.37
2022-10-08T07:18:59.352Z,3.47
2022-10-08T07:21:28.569Z,4.27
2022-10-08T07:23:56.996Z,3.80
2022-10-08T07:26:26.527Z,3.70
2022-10-08T07:28:56.879Z,3.63
2022-10-08T07:31:29.525Z,3.50
2022-10-08T07:33:58.127Z,4.33
2022-10-08T07:36:28.370Z,3.67
2022-10-08T07:38:57.173Z,3.87
2022-10-08T07:41:27.024Z,4.27
2022-10-08T07:43:57.778Z,4.20
2022-10-08T07:46:27.765Z,3.90
2022-10-08T07:48:56.866Z,4.37
2022-10-08T07:51:24.687Z,4.07
2022-10-08T07:53:52.934Z,4.10
2022-10-08T07:56:22.814Z,3.70
2022-10-08T07:58:51.660Z,3.93
2022-10-08T08:01:21.589Z,3.73
2022-10-08T08:03:55.560Z,3.97
2022-10-08T08:06:25.149Z,3.73
2022-10-08T08:08:53.535Z,3.60
2022-10-08T08:11:22.856Z,3.03
2022-10-08T08:13:51.152Z,3.17
2022-10-08T08:16:21.084Z,3.10
2022-10-08T08:18:50.274Z,3.10
2022-10-08T08:21:21.444Z,2.80
2022-10-08T08:23:59.700Z,3.00
2022-10-08T08:26:34.716Z,2.33
2022-10-08T08:29:05.683Z,2.57
2022-10-08T08:31:35.459Z,2.53
2022-10-08T08:34:08.262Z,2.47
2022-10-08T08:36:43.458Z,3.13
2022-10-08T08:39:18.521Z,2.20
2022-10-08T08:42:02.697Z,3.63
2022-10-08T08:44:35.648Z,2.43
2022-10-08T08:47:13.074Z,2.20
2022-10-08T08:49:43.611Z,2.00
2022-10-08T08:52:18.073Z,1.90
2022-10-08T08:54:49.502Z,1.70
2022-10-08T08:57:34.116Z,1.57
2022-10-08T09:00:09.954Z,1.37
2022-10-08T09:02:49.898Z,1.50
2022-10-08T09:05:25.165Z,1.37
2022-10-08T09:08:04.127Z,1.40
2022-10-08T09:10:44.766Z,1.20
2022-10-08T09:13:16.632Z,1.07
2022-10-08T09:15:47.518Z,1.50
2022-10-08T09:18:18.066Z,1.30
2022-10-08T09:20:46.646Z,1.40
2022-10-08T09:23:20.263Z,1.30
2022-10-08T09:25:53.755Z,1.20
2022-10-08T09:28:47.172Z,1.00
2022-10-08T09:31:26.176Z,1.40
2022-10-08T09:34:10.366Z,1.40
2022-10-08T09:36:44.666Z,1.40
2022-10-08T09:39:20.460Z,1.20
2022-10-08T09:42:07.132Z,1.20
2022-10-08T09:44:45.906Z,1.87
2022-10-08T09:47:17.203Z,1.43
2022-10-08T09:50:00.933Z,1.03
2022-10-08T09:52:38.058Z,1.20
2022-10-08T09:55:23.563Z,1.33
2022-10-08T09:57:59.270Z,1.30
2022-10-08T10:00:33.051Z,0.97
2022-10-08T10:03:26.521Z,1.53
2022-10-08T10:16:40.115Z,1.20
2022-10-08T10:19:27.963Z,1.30
2022-10-08T10:22:05.763Z,1.10
2022-10-08T10:24:54.429Z,1.20
2022-10-08T10:27:41.488Z,1.10
2022-10-08T10:31:29.980Z,1.20
2022-10-08T10:34:05.793Z,1.10
2022-10-08T10:36:50.513Z,1.20
2022-10-08T10:42:41.915Z,1.03
2022-10-08T10:45:27.160Z,0.97
2022-10-08T10:48:03.295Z,1.20
2022-10-08T10:50:43.405Z,0.97
2022-10-08T10:53:21.378Z,1.00
2022-10-08T10:56:02.243Z,1.00
2022-10-08T10:58:55.857Z,1.40
2022-10-08T11:01:45.531Z,1.30
2022-10-08T11:04:31.435Z,1.37
2022-10-08T11:07:40.477Z,1.30
2022-10-08T11:10:27.723Z,1.70
2022-10-08T11:13:07.545Z,1.60
2022-10-08T11:15:44.365Z,1.37
2022-10-08T11:18:37.485Z,1.40
2022-10-08T11:21:21.578Z,1.27
2022-10-08T11:24:15.537Z,1.00
2022-10-08T11:26:52.467Z,1.47
2022-10-08T11:29:41.546Z,1.40
2022-10-08T11:32:43.826Z,1.60
2022-10-08T11:35:49.944Z,1.60
2022-10-08T11:39:13.143Z,1.40
2022-10-08T11:42:39.930Z,1.40
2022-10-08T11:45:33.351Z,1.37
2022-10-08T11:48:39.752Z,1.30
2022-10-08T11:51:42.910Z,1.30
2022-10-08T11:54:20.162Z,1.40
2022-10-08T11:57:04.072Z,1.60
2022-10-08T11:59:40.024Z,1.47
2022-10-08T12:03:09.353Z,1.43
2022-10-08T12:10:56.030Z,1.20
2022-10-08T12:17:13.145Z,3.70
2022-10-08T12:20:26.704Z,2.20
2022-10-08T12:23:41.997Z,1.10
2022-10-08T12:26:30.422Z,1.10
2022-10-08T12:29:09.033Z,0.90
2022-10-08T12:31:49.600Z,1.20
2022-10-08T12:34:34.054Z,1.03
2022-10-08T12:37:26.705Z,1.10
2022-10-08T12:40:24.459Z,1.03
2022-10-08T12:43:10.313Z,0.87
2022-10-08T12:45:48.328Z,1.20
2022-10-08T12:48:33.986Z,1.20
2022-10-08T12:51:17.431Z,1.20
2022-10-08T12:53:48.797Z,1.07
2022-10-08T12:56:30.574Z,1.10
2022-10-08T12:59:06.928Z,1.40
2022-10-08T13:05:56.573Z,0.93
2022-10-08T13:12:53.167Z,1.40
2022-10-08T13:19:09.567Z,1.40
2022-10-08T13:21:42.207Z,1.30
2022-10-08T13:24:47.354Z,1.40
2022-10-08T13:27:31.150Z,1.20
2022-10-08T13:30:29.648Z,1.23
2022-10-08T13:33:04.106Z,1.60
2022-10-08T13:35:33.334Z,1.40
2022-10-08T13:38:05.308Z,1.63
2022-10-08T13:40:33.299Z,1.63
2022-10-08T13:43:44.526Z,1.60
2022-10-08T13:46:15.846Z,1.40
2022-10-08T13:48:44.126Z,1.20
2022-10-08T13:51:12.560Z,1.30
2022-10-08T13:53:42.258Z,1.40
2022-10-08T13:56:11.329Z,1.00
2022-10-08T13:58:41.880Z,1.40
2022-10-08T14:01:16.383Z,1.30
2022-10-08T14:03:49.163Z,1.20
2022-10-08T14:06:32.610Z,1.10
2022-10-08T14:09:11.223Z,1.17
2022-10-08T14:12:05.349Z,1.10
2022-10-08T14:14:34.684Z,1.20
2022-10-08T14:17:03.324Z,1.50
2022-10-08T14:19:31.999Z,0.97
2022-10-08T14:22:01.120Z,0.90
2022-10-08T14:24:32.051Z,0.93
2022-10-08T14:27:08.494Z,1.00
2022-10-08T14:29:46.836Z,1.30
2022-10-08T14:32:21.600Z,1.00
2022-10-08T14:35:36.398Z,0.90
2022-10-08T14:41:17.943Z,0.77
2022-10-08T14:43:47.209Z,1.00
2022-10-08T14:46:46.712Z,1.00
2022-10-08T14:49:14.935Z,0.93
2022-10-08T14:51:43.366Z,0.97
2022-10-08T14:54:11.970Z,0.93
2022-10-08T14:56:42.078Z,1.00
2022-10-08T14:59:10.520Z,1.13
2022-10-08T15:01:49.237Z,4.70
2022-10-08T15:04:42.906Z,1.77
2022-10-08T15:07:14.194Z,1.00
2022-10-08T15:09:50.587Z,0.70
2022-10-08T15:12:28.965Z,0.90
2022-10-08T15:14:57.418Z,0.80
2022-10-08T15:17:26.794Z,1.10
2022-10-08T15:19:54.854Z,0.80
2022-10-08T15:22:22.758Z,0.70
2022-10-08T15:24:50.581Z,0.95
2022-10-08T15:27:20.747Z,0.70
2022-10-08T15:29:49.142Z,0.80
2022-10-08T15:32:16.935Z,0.75
2022-10-08T15:34:46.053Z,0.90
2022-10-08T15:37:14.598Z,0.88
2022-10-08T15:39:42.863Z,0.95
2022-10-08T15:42:12.324Z,0.95
2022-10-08T15:44:40.124Z,1.40
2022-10-08T15:47:11.542Z,2.33
2022-10-08T15:49:41.710Z,1.20
2022-10-08T15:52:13.748Z,1.90
2022-10-08T15:54:43.121Z,1.70
2022-10-08T15:57:13.203Z,1.70
2022-10-08T15:59:49.986Z,2.73
2022-10-08T16:02:20.458Z,2.20
2022-10-08T16:04:52.475Z,1.60
2022-10-08T16:07:22.823Z,2.40
2022-10-08T16:09:50.831Z,1.43
2022-10-08T16:12:18.809Z,1.70
2022-10-08T16:14:48.000Z,1.70
2022-10-08T16:17:15.862Z,1.67
2022-10-08T16:19:43.939Z,1.37
2022-10-08T16:22:11.900Z,1.80
2022-10-08T16:24:41.354Z,1.60
2022-10-08T16:27:09.277Z,2.53
2022-10-08T16:29:37.159Z,1.57
2022-10-08T16:32:05.230Z,1.50
2022-10-08T16:34:33.286Z,1.80
2022-10-08T16:37:02.259Z,2.00
2022-10-08T16:39:30.458Z,1.40
2022-10-08T16:42:03.124Z,1.67
2022-10-08T16:44:32.048Z,1.50
2022-10-08T16:47:00.363Z,1.30
2022-10-08T16:49:30.159Z,1.43
2022-10-08T16:52:01.308Z,1.70
2022-10-08T16:54:30.074Z,2.60
2022-10-08T16:57:00.065Z,2.00
2022-10-08T16:59:29.947Z,1.40
2022-10-08T17:02:02.749Z,1.70
2022-10-08T17:04:41.788Z,1.70
2022-10-08T17:07:11.193Z,1.80
2022-10-08T17:09:42.684Z,1.57
2022-10-08T17:12:20.977Z,1.70
2022-10-08T17:14:50.883Z,2.33
2022-10-08T17:17:20.179Z,2.37
2022-10-08T17:19:49.105Z,2.73
2022-10-08T17:22:24.948Z,2.03
2022-10-08T17:24:54.395Z,2.43
2022-10-08T17:27:25.422Z,2.03
2022-10-08T17:30:02.420Z,2.30
2022-10-08T17:32:33.297Z,2.30
2022-10-08T17:35:03.305Z,1.90
2022-10-08T17:37:36.902Z,2.27
2022-10-08T17:40:15.636Z,1.97
2022-10-08T17:42:48.266Z,2.27
2022-10-08T17:45:22.404Z,2.10
2022-10-08T17:47:53.449Z,1.73
2022-10-08T17:50:26.546Z,2.20
2022-10-08T17:52:59.229Z,1.90
2022-10-08T17:55:29.270Z,2.00
2022-10-08T17:58:00.530Z,2.87
2022-10-08T18:00:30.407Z,2.67
2022-10-08T18:03:02.214Z,2.53
2022-10-08T18:05:31.430Z,2.30
2022-10-08T18:08:24.960Z,2.40
2022-10-08T18:10:54.825Z,3.00
2022-10-08T18:13:29.165Z,2.80
2022-10-08T18:16:13.252Z,2.70
2022-10-08T18:18:43.923Z,2.33
2022-10-08T18:21:13.882Z,2.70
2022-10-08T18:23:44.143Z,2.50
2022-10-08T18:26:21.009Z,2.93
2022-10-08T18:28:53.179Z,3.07
2022-10-08T18:31:23.171Z,2.77
2022-10-08T18:33:55.548Z,2.60
2022-10-08T18:36:26.753Z,2.87
2022-10-08T18:39:02.505Z,3.00
2022-10-08T18:41:32.997Z,2.57
2022-10-08T18:44:06.148Z,3.37
2022-10-08T18:46:35.895Z,2.87
2022-10-08T18:49:04.658Z,3.17
2022-10-08T18:51:34.318Z,3.47
2022-10-08T18:54:02.436Z,3.07
2022-10-08T18:56:34.430Z,3.70
2022-10-08T18:59:05.712Z,3.57
2022-10-08T19:01:36.530Z,3.57
2022-10-08T19:04:06.092Z,4.07
2022-10-08T19:06:36.279Z,3.87
2022-10-08T19:09:05.912Z,3.97
2022-10-08T19:11:37.693Z,3.57
2022-10-08T19:14:11.967Z,3.80
2022-10-08T19:16:41.539Z,4.17
2022-10-08T19:19:13.502Z,3.53
2022-10-08T19:21:41.520Z,3.80
2022-10-08T19:24:13.531Z,3.97
2022-10-08T19:26:41.332Z,4.23
2022-10-08T19:29:15.254Z,4.07
2022-10-08T19:31:43.837Z,4.30
2022-10-08T19:34:14.708Z,4.10
2022-10-08T19:36:42.645Z,3.60
2022-10-08T19:39:13.420Z,4.30
2022-10-08T19:41:42.910Z,4.47
2022-10-08T19:44:12.714Z,4.87
2022-10-08T19:46:40.676Z,4.07
2022-10-08T19:49:09.841Z,4.30
2022-10-08T19:51:38.553Z,4.37
2022-10-08T19:54:06.643Z,4.20
2022-10-08T19:56:35.801Z,4.37
2022-10-08T19:59:05.295Z,4.53
2022-10-08T20:01:37.393Z,4.37
2022-10-08T20:04:08.583Z,4.63
2022-10-08T20:06:39.913Z,4.00
2022-10-08T20:09:12.184Z,4.50
2022-10-08T20:11:41.528Z,4.03
2022-10-08T20:14:09.644Z,3.93
2022-10-08T20:16:41.131Z,4.00
2022-10-08T20:19:14.779Z,3.70
2022-10-08T20:21:42.962Z,3.97
2022-10-08T20:24:11.433Z,3.67
2022-10-08T20:26:41.070Z,3.80
2022-10-08T20:29:11.341Z,3.60
2022-10-08T20:31:42.348Z,3.47
2022-10-08T20:34:13.632Z,3.53
2022-10-08T20:36:42.082Z,4.20
2022-10-08T20:39:12.048Z,3.90
2022-10-08T20:41:40.429Z,3.50
2022-10-08T20:44:09.115Z,2.97
2022-10-08T20:46:38.063Z,3.00
2022-10-08T20:49:08.134Z,3.63
2022-10-08T20:51:36.103Z,3.40
2022-10-08T20:54:06.765Z,3.23
2022-10-08T20:56:39.902Z,3.27
2022-10-08T20:59:08.787Z,3.60
2022-10-08T21:01:41.348Z,2.90
2022-10-08T21:04:11.393Z,3.00
2022-10-08T21:06:41.910Z,3.23
2022-10-08T21:09:10.390Z,2.90
2022-10-08T21:11:39.657Z,3.67
2022-10-08T21:14:10.801Z,3.27
2022-10-08T21:16:40.978Z,3.10
2022-10-08T21:19:14.988Z,3.20
2022-10-08T21:21:43.392Z,3.30
2022-10-08T21:24:11.925Z,4.00
2022-10-08T21:26:42.120Z,3.60
2022-10-08T21:29:12.714Z,3.50
2022-10-08T21:31:42.369Z,3.83
2022-10-08T21:34:14.138Z,4.13
2022-10-08T21:36:44.920Z,3.83
2022-10-08T21:39:16.886Z,4.53
2022-10-08T21:41:45.547Z,4.00
2022-10-08T21:44:14.324Z,4.10
2022-10-08T21:46:43.387Z,4.83
2022-10-08T21:49:14.909Z,4.03
2022-10-08T21:51:43.247Z,5.00
2022-10-08T21:54:11.965Z,4.70
2022-10-08T21:56:42.270Z,5.13
2022-10-08T21:59:14.491Z,5.00
2022-10-08T22:01:44.677Z,4.87
2022-10-08T22:04:15.571Z,5.30
2022-10-08T22:06:46.119Z,5.30
2022-10-08T22:09:17.244Z,5.40
2022-10-08T22:11:45.665Z,5.33
2022-10-08T22:14:13.765Z,6.80
2022-10-08T22:16:42.853Z,7.43
2022-10-08T22:19:11.000Z,7.03
2022-10-08T22:21:40.376Z,8.03
2022-10-08T22:24:08.551Z,8.00
2022-10-08T22:26:38.521Z,8.03
2022-10-08T22:29:08.053Z,7.23
2022-10-08T22:31:36.267Z,7.77
2022-10-08T22:34:05.090Z,7.63
2022-10-08T22:36:34.685Z,8.20
2022-10-08T22:39:04.087Z,7.87
2022-10-08T22:41:33.210Z,8.13
2022-10-08T22:44:02.649Z,7.77
2022-10-08T22:46:32.368Z,7.50
2022-10-08T22:49:01.911Z,7.57
2022-10-08T22:51:30.867Z,7.57
2022-10-08T22:53:59.756Z,7.70
2022-10-08T22:56:32.101Z,7.50
2022-10-08T22:59:00.948Z,7.80
2022-10-08T23:01:30.306Z,8.27
2022-10-08T23:03:58.900Z,8.57
2022-10-08T23:06:29.538Z,7.63
2022-10-08T23:08:58.927Z,7.70
2022-10-08T23:11:27.408Z,8.10
2022-10-08T23:13:58.772Z,7.30
2022-10-08T23:16:28.287Z,8.40
2022-10-08T23:18:58.032Z,7.50
2022-10-08T23:21:26.455Z,6.97
2022-10-08T23:23:54.926Z,8.07
2022-10-08T23:26:23.938Z,8.00
2022-10-08T23:28:53.024Z,7.63
2022-10-08T23:31:24.136Z,8.50
2022-10-08T23:33:53.810Z,8.63
2022-10-08T23:36:24.059Z,7.63
2022-10-08T23:38:52.758Z,8.97
2022-10-08T23:41:20.754Z,9.13
2022-10-08T23:43:50.963Z,10.37
2022-10-08T23:46:22.081Z,9.43
2022-10-08T23:48:52.199Z,9.37
2022-10-08T23:51:21.491Z,13.80
2022-10-08T23:53:49.873Z,13.37
2022-10-08T23:56:18.047Z,13.73
2022-10-08T23:58:45.956Z,13.63
